Time,TemperatureF,DewpointF,PressureIn,WindDirection,WindDirectionDegrees,WindSpeedMPH,WindSpeedGustMPH,Humidity,HourlyPrecipIn,Conditions,Clouds,dailyrainin,SoftwareType,DateUTC
2013-02-11 00:02:00,78.0,-99.9,30.07,NE,50,18.0,22.0,-999,-99.99,,,-99.99,,2013-02-11 04:02:00,
2013-02-11 00:11:00,78.0,-99.9,30.07,NE,50,18.0,22.0,-999,-99.99,,,-99.99,,2013-02-11 04:11:00,
2013-02-11 00:22:00,78.0,-99.9,30.07,NE,50,18.0,22.0,-999,-99.99,,,-99.99,,2013-02-11 04:22:00,
2013-02-11 00:42:00,78.0,-99.9,30.07,NE,50,18.0,25.0,-999,-99.99,,,-99.99,,2013-02-11 04:42:00,
2013-02-11 00:52:00,78.0,-99.9,30.07,NE,50,18.0,25.0,-999,-99.99,,,-99.99,,2013-02-11 04:52:00,
2013-02-11 01:02:00,78.0,-99.9,30.06,ENE,60,18.0,22.0,-999,-99.99,,,-99.99,,2013-02-11 05:02:00,
2013-02-11 01:12:00,78.0,-99.9,30.06,ENE,60,18.0,22.0,-999,-99.99,,,-99.99,,2013-02-11 05:12:00,
2013-02-11 01:22:00,78.0,-99.9,30.06,ENE,60,18.0,22.0,-999,-99.99,,,-99.99,,2013-02-11 05:22:00,
2013-02-11 01:32:00,78.0,-99.9,30.06,ENE,60,18.0,22.0,-999,-99.99,,,-99.99,,2013-02-11 05:32:00,
2013-02-11 01:42:00,78.0,-99.9,30.06,ENE,60,18.0,22.0,-999,-99.99,,,-99.99,,2013-02-11 05:42:00,
2013-02-11 01:53:00,78.0,-99.9,30.06,ENE,60,18.0,22.0,-999,-99.99,,,-99.99,,2013-02-11 05:53:00,
2013-02-11 02:02:00,78.0,-99.9,30.06,NE,50,20.0,25.0,-999,-99.99,,,-99.99,,2013-02-11 06:02:00,
2013-02-11 02:12:00,78.0,-99.9,30.06,NE,50,20.0,25.0,-999,-99.99,,,-99.99,,2013-02-11 06:12:00,
2013-02-11 02:22:00,78.0,-99.9,30.06,NE,50,20.0,25.0,-999,-99.99,,,-99.99,,2013-02-11 06:22:00,
2013-02-11 02:32:00,78.0,-99.9,30.05,NE,50,20.0,25.0,-999,-99.99,,,-99.99,,2013-02-11 06:32:00,
2013-02-11 02:42:00,78.0,-99.9,30.05,NE,50,20.0,25.0,-999,-99.99,,,-99.99,,2013-02-11 06:42:00,
2013-02-11 02:52:00,78.0,-99.9,30.05,NE,50,20.0,25.0,-999,-99.99,,,-99.99,,2013-02-11 06:52:00,
2013-02-11 03:02:00,78.0,-99.9,30.04,ENE,60,18.0,22.0,-999,-99.99,,,-99.99,,2013-02-11 07:02:00,
2013-02-11 03:12:00,78.0,-99.9,30.04,ENE,60,18.0,22.0,-999,-99.99,,,-99.99,,2013-02-11 07:12:00,
2013-02-11 03:22:00,78.0,-99.9,30.04,ENE,60,18.0,22.0,-999,-99.99,,,-99.99,,2013-02-11 07:22:00,
2013-02-11 03:32:00,78.0,-99.9,30.03,ENE,60,18.0,22.0,-999,-99.99,,,-99.99,,2013-02-11 07:32:00,
2013-02-11 03:42:00,78.0,-99.9,30.03,ENE,60,18.0,22.0,-999,-99.99,,,-99.99,,2013-02-11 07:42:00,
2013-02-11 03:52:00,78.0,-99.9,30.03,ENE,60,18.0,22.0,-999,-99.99,,,-99.99,,2013-02-11 07:52:00,
2013-02-11 04:01:00,78.0,-99.9,30.02,ENE,60,18.0,20.0,-999,-99.99,,,-99.99,,2013-02-11 08:01:00,
2013-02-11 04:11:00,78.0,-99.9,30.02,ENE,60,18.0,20.0,-999,-99.99,,,-99.99,,2013-02-11 08:11:00,
2013-02-11 04:22:00,78.0,-99.9,30.02,ENE,60,18.0,20.0,-999,-99.99,,,-99.99,,2013-02-11 08:22:00,
2013-02-11 04:32:00,78.0,-99.9,30.02,ENE,60,18.0,20.0,-999,-99.99,,,-99.99,,2013-02-11 08:32:00,
2013-02-11 04:42:00,78.0,-99.9,30.02,ENE,60,18.0,20.0,-999,-99.99,,,-99.99,,2013-02-11 08:42:00,
2013-02-11 04:52:00,78.0,-99.9,30.02,ENE,60,18.0,20.0,-999,-99.99,,,-99.99,,2013-02-11 08:52:00,
2013-02-11 05:02:00,78.0,-99.9,30.02,ENE,60,18.0,22.0,-999,-99.99,,,-99.99,,2013-02-11 09:02:00,
2013-02-11 05:12:00,78.0,-99.9,30.02,ENE,60,18.0,22.0,-999,-99.99,,,-99.99,,2013-02-11 09:12:00,
2013-02-11 05:22:00,78.0,-99.9,30.02,ENE,60,18.0,22.0,-999,-99.99,,,-99.99,,2013-02-11 09:22:00,
2013-02-11 05:30:00,78.0,-99.9,30.03,ENE,70,18.0,20.0,-999,-99.99,,,-99.99,,2013-02-11 09:30:00,
2013-02-11 05:32:00,78.0,-99.9,30.02,ENE,70,18.0,22.0,-999,-99.99,,,-99.99,,2013-02-11 09:32:00,
2013-02-11 05:42:00,78.0,-99.9,30.02,ENE,70,18.0,22.0,-999,-99.99,,,-99.99,,2013-02-11 09:42:00,
2013-02-11 05:52:00,78.0,-99.9,30.02,ENE,70,18.0,22.0,-999,-99.99,,,-99.99,,2013-02-11 09:52:00,
2013-02-11 06:02:00,78.0,-99.9,30.03,ENE,70,18.0,20.0,-999,-99.99,,,-99.99,,2013-02-11 10:02:00,
2013-02-11 06:11:00,78.0,-99.9,30.03,ENE,70,18.0,20.0,-999,-99.99,,,-99.99,,2013-02-11 10:11:00,
2013-02-11 06:22:00,78.0,-99.9,30.03,ENE,70,18.0,20.0,-999,-99.99,,,-99.99,,2013-02-11 10:22:00,
2013-02-11 06:42:00,78.0,-99.9,30.03,East,80,18.0,22.0,-999,-99.99,,,-99.99,,2013-02-11 10:42:00,
2013-02-11 06:52:00,78.0,-99.9,30.03,East,80,18.0,22.0,-999,-99.99,,,-99.99,,2013-02-11 10:52:00,
2013-02-11 07:02:00,78.0,-99.9,30.04,ENE,70,20.0,25.0,-999,-99.99,,,-99.99,,2013-02-11 11:02:00,
2013-02-11 07:11:00,78.0,-99.9,30.04,ENE,70,20.0,25.0,-999,-99.99,,,-99.99,,2013-02-11 11:11:00,
2013-02-11 07:22:00,78.0,-99.9,30.04,ENE,70,20.0,25.0,-999,-99.99,,,-99.99,,2013-02-11 11:22:00,
2013-02-11 07:32:00,78.0,-99.9,30.05,ENE,70,18.0,20.0,-999,-99.99,,,-99.99,,2013-02-11 11:32:00,
2013-02-11 07:42:00,78.0,-99.9,30.05,ENE,70,18.0,20.0,-999,-99.99,,,-99.99,,2013-02-11 11:42:00,
2013-02-11 07:52:00,78.0,-99.9,30.05,ENE,70,18.0,20.0,-999,-99.99,,,-99.99,,2013-02-11 11:52:00,
2013-02-11 08:03:00,78.0,-99.9,30.06,ENE,70,20.0,22.0,-999,-99.99,,,-99.99,,2013-02-11 12:03:00,
2013-02-11 08:12:00,78.0,-99.9,30.06,ENE,70,20.0,22.0,-999,-99.99,,,-99.99,,2013-02-11 12:12:00,
2013-02-11 08:22:00,78.0,-99.9,30.06,ENE,70,20.0,22.0,-999,-99.99,,,-99.99,,2013-02-11 12:22:00,
2013-02-11 08:32:00,78.0,-99.9,30.07,ENE,60,13.0,18.0,-999,-99.99,,,-99.99,,2013-02-11 12:32:00,
2013-02-11 08:43:00,78.0,-99.9,30.07,ENE,60,13.0,18.0,-999,-99.99,,,-99.99,,2013-02-11 12:43:00,
2013-02-11 08:52:00,78.0,-99.9,30.07,ENE,60,13.0,18.0,-999,-99.99,,,-99.99,,2013-02-11 12:52:00,
2013-02-11 09:02:00,78.0,-99.9,30.08,East,90,16.0,22.0,-999,-99.99,,,-99.99,,2013-02-11 13:02:00,
2013-02-11 09:12:00,78.0,-99.9,30.08,East,90,16.0,22.0,-999,-99.99,,,-99.99,,2013-02-11 13:12:00,
2013-02-11 09:22:00,78.0,-99.9,30.08,East,90,16.0,22.0,-999,-99.99,,,-99.99,,2013-02-11 13:22:00,
2013-02-11 09:30:00,78.0,-99.9,30.09,ENE,70,16.0,20.0,-999,-99.99,,,-99.99,,2013-02-11 13:30:00,
2013-02-11 09:33:00,78.0,-99.9,30.09,NE,50,18.0,22.0,-999,-99.99,,,-99.99,,2013-02-11 13:33:00,
2013-02-11 09:42:00,78.0,-99.9,30.09,NE,50,18.0,22.0,-999,-99.99,,,-99.99,,2013-02-11 13:42:00,
2013-02-11 09:52:00,78.0,-99.9,30.09,NE,50,18.0,22.0,-999,-99.99,,,-99.99,,2013-02-11 13:52:00,
2013-02-11 10:02:00,78.0,-99.9,30.09,ENE,70,16.0,20.0,-999,-99.99,,,-99.99,,2013-02-11 14:02:00,
2013-02-11 10:12:00,78.0,-99.9,30.09,ENE,70,16.0,20.0,-999,-99.99,,,-99.99,,2013-02-11 14:12:00,
2013-02-11 10:22:00,78.0,-99.9,30.09,ENE,70,16.0,20.0,-999,-99.99,,,-99.99,,2013-02-11 14:22:00,
2013-02-11 11:02:00,77.0,-99.9,30.10,ENE,70,11.0,16.0,-999,-99.99,,,-99.99,,2013-02-11 15:02:00,
2013-02-11 11:12:00,77.0,-99.9,30.10,ENE,70,11.0,16.0,-999,-99.99,,,-99.99,,2013-02-11 15:12:00,
2013-02-11 11:22:00,77.0,-99.9,30.10,ENE,70,11.0,16.0,-999,-99.99,,,-99.99,,2013-02-11 15:22:00,
2013-02-11 11:32:00,78.0,-99.9,30.10,ENE,70,18.0,22.0,-999,-99.99,,,-99.99,,2013-02-11 15:32:00,
2013-02-11 11:43:00,78.0,-99.9,30.10,ENE,70,18.0,22.0,-999,-99.99,,,-99.99,,2013-02-11 15:43:00,
2013-02-11 11:52:00,78.0,-99.9,30.10,ENE,70,18.0,22.0,-999,-99.99,,,-99.99,,2013-02-11 15:52:00,
2013-02-11 12:02:00,78.0,-99.9,30.09,ENE,60,20.0,25.0,-999,-99.99,,,-99.99,,2013-02-11 16:02:00,
2013-02-11 12:12:00,78.0,-99.9,30.09,ENE,60,20.0,25.0,-999,-99.99,,,-99.99,,2013-02-11 16:12:00,
2013-02-11 12:22:00,78.0,-99.9,30.09,ENE,60,20.0,25.0,-999,-99.99,,,-99.99,,2013-02-11 16:22:00,
2013-02-11 12:32:00,76.0,-99.9,30.09,ENE,60,18.0,25.0,-999,-99.99,,,-99.99,,2013-02-11 16:32:00,
2013-02-11 12:43:00,76.0,-99.9,30.09,ENE,60,18.0,25.0,-999,-99.99,,,-99.99,,2013-02-11 16:43:00,
2013-02-11 12:53:00,76.0,-99.9,30.09,ENE,60,18.0,25.0,-999,-99.99,,,-99.99,,2013-02-11 16:53:00,
2013-02-11 13:02:00,76.0,-99.9,30.08,ENE,60,18.0,22.0,-999,-99.99,,,-99.99,,2013-02-11 17:02:00,
2013-02-11 13:12:00,76.0,-99.9,30.08,ENE,60,18.0,22.0,-999,-99.99,,,-99.99,,2013-02-11 17:12:00,
2013-02-11 13:22:00,76.0,-99.9,30.08,ENE,60,18.0,22.0,-999,-99.99,,,-99.99,,2013-02-11 17:22:00,
2013-02-11 13:32:00,77.0,-99.9,30.08,ENE,60,20.0,25.0,-999,-99.99,,,-99.99,,2013-02-11 17:32:00,
2013-02-11 13:42:00,77.0,-99.9,30.08,ENE,60,20.0,25.0,-999,-99.99,,,-99.99,,2013-02-11 17:42:00,
2013-02-11 13:53:00,77.0,-99.9,30.08,ENE,60,20.0,25.0,-999,-99.99,,,-99.99,,2013-02-11 17:53:00,
2013-02-11 14:02:00,77.0,-99.9,30.07,NE,50,20.0,25.0,-999,-99.99,,,-99.99,,2013-02-11 18:02:00,
2013-02-11 14:12:00,77.0,-99.9,30.07,NE,50,20.0,25.0,-999,-99.99,,,-99.99,,2013-02-11 18:12:00,
2013-02-11 14:22:00,77.0,-99.9,30.07,NE,50,20.0,25.0,-999,-99.99,,,-99.99,,2013-02-11 18:22:00,
2013-02-11 14:32:00,77.0,-99.9,30.06,NE,50,18.0,22.0,-999,-99.99,,,-99.99,,2013-02-11 18:32:00,
2013-02-11 14:42:00,77.0,-99.9,30.06,NE,50,18.0,22.0,-999,-99.99,,,-99.99,,2013-02-11 18:42:00,
2013-02-11 14:54:00,77.0,-99.9,30.06,NE,50,18.0,22.0,-999,-99.99,,,-99.99,,2013-02-11 18:54:00,
2013-02-11 15:02:00,74.0,-99.9,30.05,ENE,70,22.0,27.0,-999,-99.99,,,-99.99,,2013-02-11 19:02:00,
2013-02-11 15:12:00,74.0,-99.9,30.05,ENE,70,22.0,27.0,-999,-99.99,,,-99.99,,2013-02-11 19:12:00,
2013-02-11 15:22:00,74.0,-99.9,30.05,ENE,70,22.0,27.0,-999,-99.99,,,-99.99,,2013-02-11 19:22:00,
2013-02-11 15:32:00,75.0,-99.9,30.04,ENE,60,13.0,18.0,-999,-99.99,,,-99.99,,2013-02-11 19:32:00,
2013-02-11 15:42:00,75.0,-99.9,30.04,ENE,60,13.0,18.0,-999,-99.99,,,-99.99,,2013-02-11 19:42:00,
2013-02-11 15:52:00,75.0,-99.9,30.04,ENE,60,13.0,18.0,-999,-99.99,,,-99.99,,2013-02-11 19:52:00,
2013-02-11 16:02:00,76.0,-99.9,30.03,NE,50,13.0,18.0,-999,-99.99,,,-99.99,,2013-02-11 20:02:00,
2013-02-11 16:12:00,76.0,-99.9,30.03,NE,50,13.0,18.0,-999,-99.99,,,-99.99,,2013-02-11 20:12:00,
2013-02-11 16:22:00,76.0,-99.9,30.03,NE,50,13.0,18.0,-999,-99.99,,,-99.99,,2013-02-11 20:22:00,
2013-02-11 16:32:00,77.0,-99.9,30.03,NE,50,20.0,27.0,-999,-99.99,,,-99.99,,2013-02-11 20:32:00,
2013-02-11 16:42:00,77.0,-99.9,30.03,NE,50,20.0,27.0,-999,-99.99,,,-99.99,,2013-02-11 20:42:00,
2013-02-11 16:52:00,77.0,-99.9,30.03,NE,50,20.0,27.0,-999,-99.99,,,-99.99,,2013-02-11 20:52:00,
2013-02-11 17:02:00,75.0,-99.9,30.03,ENE,60,22.0,31.0,-999,-99.99,,,-99.99,,2013-02-11 21:02:00,
2013-02-11 17:12:00,75.0,-99.9,30.03,ENE,60,22.0,31.0,-999,-99.99,,,-99.99,,2013-02-11 21:12:00,
2013-02-11 17:22:00,75.0,-99.9,30.03,ENE,60,22.0,31.0,-999,-99.99,,,-99.99,,2013-02-11 21:22:00,
2013-02-11 17:32:00,74.0,-99.9,30.04,NE,50,20.0,25.0,-999,-99.99,,,-99.99,,2013-02-11 21:32:00,
2013-02-11 17:42:00,74.0,-99.9,30.04,NE,50,20.0,25.0,-999,-99.99,,,-99.99,,2013-02-11 21:42:00,
2013-02-11 17:52:00,74.0,-99.9,30.04,NE,50,20.0,25.0,-999,-99.99,,,-99.99,,2013-02-11 21:52:00,
2013-02-11 18:02:00,76.0,-99.9,30.04,NE,50,18.0,22.0,-999,-99.99,,,-99.99,,2013-02-11 22:02:00,
2013-02-11 18:12:00,76.0,-99.9,30.04,NE,50,18.0,22.0,-999,-99.99,,,-99.99,,2013-02-11 22:12:00,
2013-02-11 18:22:00,76.0,-99.9,30.04,NE,50,18.0,22.0,-999,-99.99,,,-99.99,,2013-02-11 22:22:00,
2013-02-11 18:32:00,78.0,-99.9,30.04,NE,50,22.0,27.0,-999,-99.99,,,-99.99,,2013-02-11 22:32:00,
2013-02-11 18:42:00,78.0,-99.9,30.04,NE,50,22.0,27.0,-999,-99.99,,,-99.99,,2013-02-11 22:42:00,
2013-02-11 18:53:00,78.0,-99.9,30.04,NE,50,22.0,27.0,-999,-99.99,,,-99.99,,2013-02-11 22:53:00,
2013-02-11 19:02:00,78.0,-99.9,30.04,NE,50,22.0,29.0,-999,-99.99,,,-99.99,,2013-02-11 23:02:00,
2013-02-11 19:12:00,78.0,-99.9,30.04,NE,50,22.0,29.0,-999,-99.99,,,-99.99,,2013-02-11 23:12:00,
2013-02-11 19:22:00,78.0,-99.9,30.04,NE,50,22.0,29.0,-999,-99.99,,,-99.99,,2013-02-11 23:22:00,
2013-02-11 19:32:00,78.0,-99.9,30.04,NE,50,22.0,29.0,-999,-99.99,,,-99.99,,2013-02-11 23:32:00,
2013-02-11 19:42:00,78.0,-99.9,30.04,NE,50,22.0,29.0,-999,-99.99,,,-99.99,,2013-02-11 23:42:00,
2013-02-11 19:53:00,78.0,-99.9,30.04,NE,50,22.0,29.0,-999,-99.99,,,-99.99,,2013-02-11 23:53:00,
2013-02-11 20:02:00,78.0,-99.9,30.05,NE,50,22.0,29.0,-999,-99.99,,,-99.99,,2013-02-12 00:02:00,
2013-02-11 20:12:00,78.0,-99.9,30.05,NE,50,22.0,29.0,-999,-99.99,,,-99.99,,2013-02-12 00:12:00,
2013-02-11 20:22:00,78.0,-99.9,30.05,NE,50,22.0,29.0,-999,-99.99,,,-99.99,,2013-02-12 00:22:00,
2013-02-11 20:32:00,78.0,-99.9,30.06,NE,50,22.0,29.0,-999,-99.99,,,-99.99,,2013-02-12 00:32:00,
2013-02-11 20:43:00,78.0,-99.9,30.06,NE,50,22.0,29.0,-999,-99.99,,,-99.99,,2013-02-12 00:43:00,
2013-02-11 20:52:00,78.0,-99.9,30.06,NE,50,22.0,29.0,-999,-99.99,,,-99.99,,2013-02-12 00:52:00,
2013-02-11 21:02:00,78.0,-99.9,30.07,ENE,60,22.0,29.0,-999,-99.99,,,-99.99,,2013-02-12 01:02:00,
2013-02-11 21:12:00,78.0,-99.9,30.07,ENE,60,22.0,29.0,-999,-99.99,,,-99.99,,2013-02-12 01:12:00,
2013-02-11 21:22:00,78.0,-99.9,30.07,ENE,60,22.0,29.0,-999,-99.99,,,-99.99,,2013-02-12 01:22:00,
2013-02-11 21:32:00,78.0,-99.9,30.07,ENE,60,22.0,27.0,-999,-99.99,,,-99.99,,2013-02-12 01:32:00,
2013-02-11 21:42:00,78.0,-99.9,30.07,ENE,60,22.0,27.0,-999,-99.99,,,-99.99,,2013-02-12 01:42:00,
2013-02-11 21:52:00,78.0,-99.9,30.07,ENE,60,22.0,27.0,-999,-99.99,,,-99.99,,2013-02-12 01:52:00,
2013-02-11 22:02:00,78.0,-99.9,30.08,ENE,60,20.0,27.0,-999,-99.99,,,-99.99,,2013-02-12 02:02:00,
2013-02-11 22:12:00,78.0,-99.9,30.08,ENE,60,20.0,27.0,-999,-99.99,,,-99.99,,2013-02-12 02:12:00,
2013-02-11 22:22:00,78.0,-99.9,30.08,ENE,60,20.0,27.0,-999,-99.99,,,-99.99,,2013-02-12 02:22:00,
2013-02-11 22:32:00,78.0,-99.9,30.08,ENE,60,20.0,25.0,-999,-99.99,,,-99.99,,2013-02-12 02:32:00,
2013-02-11 22:42:00,78.0,-99.9,30.08,ENE,60,20.0,25.0,-999,-99.99,,,-99.99,,2013-02-12 02:42:00,
2013-02-11 22:53:00,78.0,-99.9,30.08,ENE,60,20.0,25.0,-999,-99.99,,,-99.99,,2013-02-12 02:53:00,
2013-02-11 23:02:00,78.0,-99.9,30.09,ENE,60,20.0,25.0,-999,-99.99,,,-99.99,,2013-02-12 03:02:00,
2013-02-11 23:11:00,78.0,-99.9,30.09,ENE,60,20.0,25.0,-999,-99.99,,,-99.99,,2013-02-12 03:11:00,
2013-02-11 23:21:00,78.0,-99.9,30.09,ENE,60,20.0,25.0,-999,-99.99,,,-99.99,,2013-02-12 03:21:00,
2013-02-11 23:32:00,77.0,-99.9,30.09,ENE,60,20.0,25.0,-999,-99.99,,,-99.99,,2013-02-12 03:32:00,
2013-02-11 23:42:00,77.0,-99.9,30.09,ENE,60,20.0,25.0,-999,-99.99,,,-99.99,,2013-02-12 03:42:00,
2013-02-11 23:52:00,77.0,-99.9,30.09,ENE,60,20.0,25.0,-999,-99.99,,,-99.99,,2013-02-12 03:52:00,